Pineville, MO

8:51 AM CST on December 19, 2014 (GMT -0600)
Rogers Municipal-Carter | Change Station
CLOSE
Current Station
Airport
Location: Rogers,
Elevation: 1358 ft
Nearby Weather Stations
Active Advisory: Dense Fog Advisory

Elev 1358 ft 36.37 °N, 94.11 °W | Updated 54 minutes ago

Fog
Fog
38 °F
Feels Like 36 °F
N
4
Wind Variable Wind from ENE

Today
High -- | Low -- °F
--% Chance of Precip.
Yesterday
High -- | Low -- °F
Precip. -- in
7:24 AM 5:04 PM
Waning Crescent, 7% visible
Pressure 30.25 in
Visibility 4.0 miles
Clouds Overcast 400 ft
Windchill 36 °F
Dew Point 37 °F
Humidity 97%
Rainfall 0.00 in
Snow Depth Not available.
UV 0 out of 12
Pollen 3.90 out of 12
Air Quality Not available.
Flu Activity Not available.
METAR KROG 191357Z AUTO 07003KT 4SM BR OVC004 03/03 A3023 RMK AO2 SLP243 T00330028

More Conditions Fewer Conditions

Pressure 30.25 in
Visibility 4.0 miles
Clouds Overcast 400 ft
Windchill 36 °F
Dew Point 37 °F
Humidity 97%
Rainfall 0.00 in
Snow Depth Not available.
UV 0 out of 12
Pollen 3.90 out of 12
Air Quality Not available.
Flu Activity Not available.
METAR KROG 191357Z AUTO 07003KT 4SM BR OVC004 03/03 A3023 RMK AO2 SLP243 T00330028

More Conditions Fewer Conditions

10-Day Weather Forecast

Almanac

Astronomy

Dec. 19, 2014 Rise Set
Actual Time
Civil Twilight
Nautical Twilight
Astronomical Twilight
Moon
Length of Visible Light
Length of Day
Tomorrow will be .
, % of the Moon is Illuminated

Today's Extremes

State Highs State Lows

Community

WunderPhotos

Upload Photos

1,778,988 photos uploaded!

WunderBlogs® & News

Nearby

Air Quality

  Air Quality AQ Index Pollutant
Not available.

Snow Depth

Station Depth Elevation

Earthquake Activity

City Distance Mag. Time & Date
Minimum magnitude displayed is 2.5.

Coastal Water Temperatures

Place Temperature

Nearby Weather Stations